sensor_id;sensor_type;location;lat;lon;timestamp;temperature;humidity
4635;DHT22;2330;48.158;11.816;2022-12-07T00:01:34;2.30;98.50
4635;DHT22;2330;48.158;11.816;2022-12-07T00:04:03;2.30;98.50
4635;DHT22;2330;48.158;11.816;2022-12-07T00:06:39;2.30;98.50
4635;DHT22;2330;48.158;11.816;2022-12-07T00:09:08;2.30;98.50
4635;DHT22;2330;48.158;11.816;2022-12-07T00:11:35;2.30;98.50
4635;DHT22;2330;48.158;11.816;2022-12-07T00:14:05;2.30;98.50
4635;DHT22;2330;48.158;11.816;2022-12-07T00:16:33;2.30;98.50
4635;DHT22;2330;48.158;11.816;2022-12-07T00:19:00;2.30;98.50
4635;DHT22;2330;48.158;11.816;2022-12-07T00:21:30;2.20;98.50
4635;DHT22;2330;48.158;11.816;2022-12-07T00:23:58;2.30;98.50
4635;DHT22;2330;48.158;11.816;2022-12-07T00:26:30;2.20;98.50
4635;DHT22;2330;48.158;11.816;2022-12-07T00:28:59;2.20;98.50
4635;DHT22;2330;48.158;11.816;2022-12-07T00:31:34;2.30;98.50
4635;DHT22;2330;48.158;11.816;2022-12-07T00:34:02;2.20;98.50
4635;DHT22;2330;48.158;11.816;2022-12-07T00:36:29;2.20;98.50
4635;DHT22;2330;48.158;11.816;2022-12-07T00:38:59;2.20;98.50
4635;DHT22;2330;48.158;11.816;2022-12-07T00:41:28;2.20;98.50
4635;DHT22;2330;48.158;11.816;2022-12-07T00:43:55;2.20;98.50
4635;DHT22;2330;48.158;11.816;2022-12-07T00:46:23;2.20;98.50
4635;DHT22;2330;48.158;11.816;2022-12-07T00:48:51;2.20;98.50
4635;DHT22;2330;48.158;11.816;2022-12-07T00:51:21;2.20;98.50
4635;DHT22;2330;48.158;11.816;2022-12-07T00:53:49;2.20;98.50
4635;DHT22;2330;48.158;11.816;2022-12-07T00:56:18;2.20;98.50
4635;DHT22;2330;48.158;11.816;2022-12-07T00:59:02;2.10;98.50
4635;DHT22;2330;48.158;11.816;2022-12-07T01:01:35;2.10;98.50
4635;DHT22;2330;48.158;11.816;2022-12-07T01:04:03;2.10;98.50
4635;DHT22;2330;48.158;11.816;2022-12-07T01:06:30;2.10;98.50
4635;DHT22;2330;48.158;11.816;2022-12-07T01:08:57;2.10;98.50
4635;DHT22;2330;48.158;11.816;2022-12-07T01:11:26;2.10;98.50
4635;DHT22;2330;48.158;11.816;2022-12-07T01:13:56;2.10;98.50
4635;DHT22;2330;48.158;11.816;2022-12-07T01:16:25;2.10;98.50
4635;DHT22;2330;48.158;11.816;2022-12-07T01:18:55;2.10;98.50
4635;DHT22;2330;48.158;11.816;2022-12-07T01:21:24;2.10;98.50
4635;DHT22;2330;48.158;11.816;2022-12-07T01:23:52;2.10;98.50
4635;DHT22;2330;48.158;11.816;2022-12-07T01:26:21;2.10;98.50
4635;DHT22;2330;48.158;11.816;2022-12-07T01:28:49;2.10;98.50
4635;DHT22;2330;48.158;11.816;2022-12-07T01:31:19;2.10;98.50
4635;DHT22;2330;48.158;11.816;2022-12-07T01:33:48;2.10;98.50
4635;DHT22;2330;48.158;11.816;2022-12-07T01:38:45;2.10;98.50
4635;DHT22;2330;48.158;11.816;2022-12-07T01:41:12;2.10;98.50
4635;DHT22;2330;48.158;11.816;2022-12-07T01:44:32;2.10;98.50
4635;DHT22;2330;48.158;11.816;2022-12-07T01:46:56;2.10;98.50
4635;DHT22;2330;48.158;11.816;2022-12-07T01:49:33;2.10;98.50
4635;DHT22;2330;48.158;11.816;2022-12-07T01:52:18;2.00;98.50
4635;DHT22;2330;48.158;11.816;2022-12-07T01:54:47;2.00;98.50
4635;DHT22;2330;48.158;11.816;2022-12-07T01:57:17;2.00;98.50
4635;DHT22;2330;48.158;11.816;2022-12-07T01:59:47;2.00;98.50
4635;DHT22;2330;48.158;11.816;2022-12-07T02:02:30;2.00;98.50
4635;DHT22;2330;48.158;11.816;2022-12-07T02:05:03;2.00;98.50
4635;DHT22;2330;48.158;11.816;2022-12-07T02:07:31;2.00;98.50
4635;DHT22;2330;48.158;11.816;2022-12-07T02:10:18;2.00;98.50
4635;DHT22;2330;48.158;11.816;2022-12-07T02:12:49;2.00;98.50
4635;DHT22;2330;48.158;11.816;2022-12-07T02:15:17;2.00;98.50
4635;DHT22;2330;48.158;11.816;2022-12-07T02:18:13;2.00;98.50
4635;DHT22;2330;48.158;11.816;2022-12-07T02:21:07;2.00;98.50
4635;DHT22;2330;48.158;11.816;2022-12-07T02:29:25;2.00;98.50
4635;DHT22;2330;48.158;11.816;2022-12-07T02:32:16;2.00;98.50
4635;DHT22;2330;48.158;11.816;2022-12-07T02:34:58;2.00;98.50
4635;DHT22;2330;48.158;11.816;2022-12-07T02:37:38;2.00;98.50
4635;DHT22;2330;48.158;11.816;2022-12-07T02:42:49;2.00;98.50
4635;DHT22;2330;48.158;11.816;2022-12-07T02:45:20;2.00;98.50
4635;DHT22;2330;48.158;11.816;2022-12-07T02:47:51;2.00;98.50
4635;DHT22;2330;48.158;11.816;2022-12-07T02:50:20;2.00;98.50
4635;DHT22;2330;48.158;11.816;2022-12-07T02:52:47;2.00;98.50
4635;DHT22;2330;48.158;11.816;2022-12-07T02:55:17;2.00;98.50
4635;DHT22;2330;48.158;11.816;2022-12-07T02:58:04;2.00;98.50
4635;DHT22;2330;48.158;11.816;2022-12-07T03:00:40;1.90;98.50
4635;DHT22;2330;48.158;11.816;2022-12-07T03:03:12;1.90;98.50
4635;DHT22;2330;48.158;11.816;2022-12-07T03:06:01;2.00;98.50
4635;DHT22;2330;48.158;11.816;2022-12-07T03:11:16;1.90;98.50
4635;DHT22;2330;48.158;11.816;2022-12-07T03:14:09;1.90;98.50
4635;DHT22;2330;48.158;11.816;2022-12-07T03:16:54;1.90;98.50
4635;DHT22;2330;48.158;11.816;2022-12-07T03:19:22;1.90;98.50
4635;DHT22;2330;48.158;11.816;2022-12-07T03:21:57;1.90;98.50
4635;DHT22;2330;48.158;11.816;2022-12-07T03:24:30;1.90;98.50
4635;DHT22;2330;48.158;11.816;2022-12-07T03:27:21;1.90;98.50
4635;DHT22;2330;48.158;11.816;2022-12-07T03:30:06;1.90;98.50
4635;DHT22;2330;48.158;11.816;2022-12-07T03:32:43;1.90;98.50
4635;DHT22;2330;48.158;11.816;2022-12-07T03:41:04;1.80;98.50
4635;DHT22;2330;48.158;11.816;2022-12-07T03:43:32;1.80;98.50
4635;DHT22;2330;48.158;11.816;2022-12-07T03:48:40;1.80;98.50
4635;DHT22;2330;48.158;11.816;2022-12-07T03:53:48;1.80;98.50
4635;DHT22;2330;48.158;11.816;2022-12-07T03:56:17;1.80;98.50
4635;DHT22;2330;48.158;11.816;2022-12-07T03:58:45;1.70;98.50
4635;DHT22;2330;48.158;11.816;2022-12-07T04:01:12;1.70;98.50
4635;DHT22;2330;48.158;11.816;2022-12-07T04:03:39;1.70;98.50
4635;DHT22;2330;48.158;11.816;2022-12-07T04:06:06;1.80;98.50
4635;DHT22;2330;48.158;11.816;2022-12-07T04:08:33;1.80;98.50
4635;DHT22;2330;48.158;11.816;2022-12-07T04:10:59;1.80;98.50
4635;DHT22;2330;48.158;11.816;2022-12-07T04:13:27;1.80;98.50
4635;DHT22;2330;48.158;11.816;2022-12-07T04:15:54;1.80;98.50
4635;DHT22;2330;48.158;11.816;2022-12-07T04:18:20;1.80;98.50
4635;DHT22;2330;48.158;11.816;2022-12-07T04:20:47;1.80;98.50
4635;DHT22;2330;48.158;11.816;2022-12-07T04:23:15;1.80;98.50
4635;DHT22;2330;48.158;11.816;2022-12-07T04:25:43;1.80;98.50
4635;DHT22;2330;48.158;11.816;2022-12-07T04:28:10;1.80;98.50
4635;DHT22;2330;48.158;11.816;2022-12-07T04:30:36;1.80;98.50
4635;DHT22;2330;48.158;11.816;2022-12-07T04:33:03;1.80;98.50
4635;DHT22;2330;48.158;11.816;2022-12-07T04:35:30;1.80;98.50
4635;DHT22;2330;48.158;11.816;2022-12-07T04:37:57;1.80;98.50
4635;DHT22;2330;48.158;11.816;2022-12-07T04:40:23;1.90;98.50
4635;DHT22;2330;48.158;11.816;2022-12-07T04:42:50;1.90;98.50
4635;DHT22;2330;48.158;11.816;2022-12-07T04:45:17;1.90;98.50
4635;DHT22;2330;48.158;11.816;2022-12-07T04:47:43;1.90;98.50
4635;DHT22;2330;48.158;11.816;2022-12-07T04:50:10;1.90;98.50
4635;DHT22;2330;48.158;11.816;2022-12-07T04:52:37;1.90;98.50
4635;DHT22;2330;48.158;11.816;2022-12-07T04:55:04;1.90;98.50
4635;DHT22;2330;48.158;11.816;2022-12-07T04:57:31;1.90;98.50
4635;DHT22;2330;48.158;11.816;2022-12-07T04:59:58;1.90;98.50
4635;DHT22;2330;48.158;11.816;2022-12-07T05:02:25;1.90;98.50
4635;DHT22;2330;48.158;11.816;2022-12-07T05:04:51;1.90;98.50
4635;DHT22;2330;48.158;11.816;2022-12-07T05:07:18;2.00;98.50
4635;DHT22;2330;48.158;11.816;2022-12-07T05:09:45;2.00;98.50
4635;DHT22;2330;48.158;11.816;2022-12-07T05:12:12;2.00;98.50
4635;DHT22;2330;48.158;11.816;2022-12-07T05:14:38;2.00;98.50
4635;DHT22;2330;48.158;11.816;2022-12-07T05:17:05;2.00;98.50
4635;DHT22;2330;48.158;11.816;2022-12-07T05:19:32;1.90;98.50
4635;DHT22;2330;48.158;11.816;2022-12-07T05:21:58;2.00;98.50
4635;DHT22;2330;48.158;11.816;2022-12-07T05:24:25;1.90;98.50
4635;DHT22;2330;48.158;11.816;2022-12-07T05:26:52;1.90;98.50
4635;DHT22;2330;48.158;11.816;2022-12-07T05:29:19;2.00;98.50
4635;DHT22;2330;48.158;11.816;2022-12-07T05:31:45;2.00;98.50
4635;DHT22;2330;48.158;11.816;2022-12-07T05:34:12;1.90;98.50
4635;DHT22;2330;48.158;11.816;2022-12-07T05:36:39;1.90;98.50
4635;DHT22;2330;48.158;11.816;2022-12-07T05:39:06;1.90;98.50
4635;DHT22;2330;48.158;11.816;2022-12-07T05:41:33;1.90;98.50
4635;DHT22;2330;48.158;11.816;2022-12-07T05:44:19;1.90;98.50
4635;DHT22;2330;48.158;11.816;2022-12-07T05:46:46;1.80;98.50
4635;DHT22;2330;48.158;11.816;2022-12-07T05:49:12;1.80;98.50
4635;DHT22;2330;48.158;11.816;2022-12-07T05:51:39;1.80;98.50
4635;DHT22;2330;48.158;11.816;2022-12-07T05:54:06;1.80;98.50
4635;DHT22;2330;48.158;11.816;2022-12-07T05:56:33;1.80;98.50
4635;DHT22;2330;48.158;11.816;2022-12-07T05:59:00;1.80;98.50
4635;DHT22;2330;48.158;11.816;2022-12-07T06:01:45;1.80;98.50
4635;DHT22;2330;48.158;11.816;2022-12-07T06:04:12;1.80;98.50
4635;DHT22;2330;48.158;11.816;2022-12-07T06:06:38;1.90;98.50
4635;DHT22;2330;48.158;11.816;2022-12-07T06:09:06;1.80;98.50
4635;DHT22;2330;48.158;11.816;2022-12-07T06:11:33;1.80;98.50
4635;DHT22;2330;48.158;11.816;2022-12-07T06:14:18;1.80;98.50
4635;DHT22;2330;48.158;11.816;2022-12-07T06:16:45;1.80;98.50
4635;DHT22;2330;48.158;11.816;2022-12-07T06:19:12;1.80;98.50
4635;DHT22;2330;48.158;11.816;2022-12-07T06:21:39;1.80;98.50
4635;DHT22;2330;48.158;11.816;2022-12-07T06:24:06;1.80;98.50
4635;DHT22;2330;48.158;11.816;2022-12-07T06:26:33;1.80;98.50
4635;DHT22;2330;48.158;11.816;2022-12-07T06:29:00;1.80;98.50
4635;DHT22;2330;48.158;11.816;2022-12-07T06:31:26;1.80;98.50
4635;DHT22;2330;48.158;11.816;2022-12-07T06:34:04;1.80;98.50
4635;DHT22;2330;48.158;11.816;2022-12-07T06:36:31;1.80;98.50
4635;DHT22;2330;48.158;11.816;2022-12-07T06:38:58;1.80;98.50
4635;DHT22;2330;48.158;11.816;2022-12-07T06:41:25;1.80;98.50
4635;DHT22;2330;48.158;11.816;2022-12-07T06:43:52;1.80;98.50
4635;DHT22;2330;48.158;11.816;2022-12-07T06:46:22;1.80;98.50
4635;DHT22;2330;48.158;11.816;2022-12-07T06:48:49;1.80;98.50
4635;DHT22;2330;48.158;11.816;2022-12-07T06:51:16;1.80;98.50
4635;DHT22;2330;48.158;11.816;2022-12-07T06:53:43;1.80;98.50
4635;DHT22;2330;48.158;11.816;2022-12-07T06:56:10;1.80;98.50
4635;DHT22;2330;48.158;11.816;2022-12-07T06:58:37;1.80;98.50
4635;DHT22;2330;48.158;11.816;2022-12-07T07:01:09;1.80;98.50
4635;DHT22;2330;48.158;11.816;2022-12-07T07:04:18;1.80;98.50
4635;DHT22;2330;48.158;11.816;2022-12-07T07:07:29;1.80;98.50
4635;DHT22;2330;48.158;11.816;2022-12-07T07:10:40;1.80;98.50
4635;DHT22;2330;48.158;11.816;2022-12-07T07:13:51;1.80;98.50
4635;DHT22;2330;48.158;11.816;2022-12-07T07:17:03;1.80;98.50
4635;DHT22;2330;48.158;11.816;2022-12-07T07:20:14;1.70;98.50
4635;DHT22;2330;48.158;11.816;2022-12-07T07:23:32;1.70;98.50
4635;DHT22;2330;48.158;11.816;2022-12-07T07:26:46;1.70;98.50
4635;DHT22;2330;48.158;11.816;2022-12-07T07:29:57;1.70;98.50
4635;DHT22;2330;48.158;11.816;2022-12-07T07:33:10;1.80;98.50
4635;DHT22;2330;48.158;11.816;2022-12-07T07:36:21;1.80;98.50
4635;DHT22;2330;48.158;11.816;2022-12-07T07:39:32;1.80;98.50
4635;DHT22;2330;48.158;11.816;2022-12-07T07:42:43;1.80;98.50
4635;DHT22;2330;48.158;11.816;2022-12-07T07:45:54;1.80;98.50
4635;DHT22;2330;48.158;11.816;2022-12-07T07:49:05;1.90;98.50
4635;DHT22;2330;48.158;11.816;2022-12-07T07:52:16;1.90;98.50
4635;DHT22;2330;48.158;11.816;2022-12-07T07:55:27;1.90;98.50
4635;DHT22;2330;48.158;11.816;2022-12-07T07:58:38;1.90;98.50
4635;DHT22;2330;48.158;11.816;2022-12-07T08:01:50;1.90;98.50
4635;DHT22;2330;48.158;11.816;2022-12-07T08:05:01;1.90;98.50
4635;DHT22;2330;48.158;11.816;2022-12-07T08:08:12;1.90;98.50
4635;DHT22;2330;48.158;11.816;2022-12-07T08:11:23;2.00;98.50
4635;DHT22;2330;48.158;11.816;2022-12-07T08:14:35;2.00;98.50
4635;DHT22;2330;48.158;11.816;2022-12-07T08:17:46;2.00;98.50
4635;DHT22;2330;48.158;11.816;2022-12-07T08:21:00;2.00;98.50
4635;DHT22;2330;48.158;11.816;2022-12-07T11:53:04;4.30;98.50
4635;DHT22;2330;48.158;11.816;2022-12-07T11:55:57;4.40;98.50
4635;DHT22;2330;48.158;11.816;2022-12-07T11:59:02;4.70;98.50
4635;DHT22;2330;48.158;11.816;2022-12-07T12:07:23;5.20;98.50
4635;DHT22;2330;48.158;11.816;2022-12-07T12:10:22;5.70;98.50
4635;DHT22;2330;48.158;11.816;2022-12-07T12:19:06;6.50;98.50
4635;DHT22;2330;48.158;11.816;2022-12-07T12:21:35;6.50;98.50
4635;DHT22;2330;48.158;11.816;2022-12-07T12:24:09;6.50;98.50
4635;DHT22;2330;48.158;11.816;2022-12-07T12:26:38;6.30;98.50
4635;DHT22;2330;48.158;11.816;2022-12-07T12:29:15;6.40;98.50
4635;DHT22;2330;48.158;11.816;2022-12-07T12:31:47;6.40;98.50
4635;DHT22;2330;48.158;11.816;2022-12-07T12:34:38;6.30;98.50
4635;DHT22;2330;48.158;11.816;2022-12-07T12:42:53;5.70;98.50
4635;DHT22;2330;48.158;11.816;2022-12-07T12:45:31;5.80;98.50
4635;DHT22;2330;48.158;11.816;2022-12-07T12:50:36;6.00;98.50
4635;DHT22;2330;48.158;11.816;2022-12-07T12:55:45;6.50;98.50
4635;DHT22;2330;48.158;11.816;2022-12-07T13:00:46;5.90;98.50
4635;DHT22;2330;48.158;11.816;2022-12-07T13:03:27;5.40;98.50
4635;DHT22;2330;48.158;11.816;2022-12-07T13:08:43;5.40;98.50
4635;DHT22;2330;48.158;11.816;2022-12-07T13:13:45;5.30;98.50
4635;DHT22;2330;48.158;11.816;2022-12-07T13:18:38;4.90;98.50
4635;DHT22;2330;48.158;11.816;2022-12-07T13:31:51;4.40;98.50
4635;DHT22;2330;48.158;11.816;2022-12-07T13:34:39;4.40;98.50
4635;DHT22;2330;48.158;11.816;2022-12-07T13:40:01;4.30;98.50
4635;DHT22;2330;48.158;11.816;2022-12-07T13:42:38;4.30;98.50
4635;DHT22;2330;48.158;11.816;2022-12-07T13:45:38;4.20;98.50
4635;DHT22;2330;48.158;11.816;2022-12-07T13:48:27;4.20;98.50
4635;DHT22;2330;48.158;11.816;2022-12-07T13:50:57;4.20;98.50
4635;DHT22;2330;48.158;11.816;2022-12-07T13:53:24;4.10;98.50
4635;DHT22;2330;48.158;11.816;2022-12-07T13:55:54;4.00;98.50
4635;DHT22;2330;48.158;11.816;2022-12-07T13:58:22;3.90;98.50
4635;DHT22;2330;48.158;11.816;2022-12-07T14:00:50;3.90;98.50
4635;DHT22;2330;48.158;11.816;2022-12-07T14:05:44;3.80;98.50
4635;DHT22;2330;48.158;11.816;2022-12-07T14:11:04;3.60;98.50
4635;DHT22;2330;48.158;11.816;2022-12-07T14:13:38;3.50;98.50
4635;DHT22;2330;48.158;11.816;2022-12-07T14:16:21;3.40;98.50
4635;DHT22;2330;48.158;11.816;2022-12-07T14:18:48;3.30;98.50
4635;DHT22;2330;48.158;11.816;2022-12-07T14:21:17;3.30;98.50
4635;DHT22;2330;48.158;11.816;2022-12-07T14:23:45;3.20;98.50
4635;DHT22;2330;48.158;11.816;2022-12-07T14:26:19;3.10;98.50
4635;DHT22;2330;48.158;11.816;2022-12-07T14:28:47;3.10;98.50
4635;DHT22;2330;48.158;11.816;2022-12-07T14:31:16;3.10;98.50
4635;DHT22;2330;48.158;11.816;2022-12-07T14:33:59;3.10;98.50
4635;DHT22;2330;48.158;11.816;2022-12-07T14:36:26;3.10;98.50
4635;DHT22;2330;48.158;11.816;2022-12-07T14:38:52;3.10;98.50
4635;DHT22;2330;48.158;11.816;2022-12-07T14:41:22;3.10;98.50
4635;DHT22;2330;48.158;11.816;2022-12-07T14:44:12;3.10;98.50
4635;DHT22;2330;48.158;11.816;2022-12-07T14:46:51;3.10;98.50
4635;DHT22;2330;48.158;11.816;2022-12-07T14:49:37;3.00;98.50
4635;DHT22;2330;48.158;11.816;2022-12-07T14:52:06;3.00;98.50
4635;DHT22;2330;48.158;11.816;2022-12-07T14:54:58;3.00;98.50
4635;DHT22;2330;48.158;11.816;2022-12-07T14:57:24;2.90;98.50
4635;DHT22;2330;48.158;11.816;2022-12-07T14:59:51;2.90;98.50
4635;DHT22;2330;48.158;11.816;2022-12-07T15:02:18;2.80;98.50
4635;DHT22;2330;48.158;11.816;2022-12-07T15:04:45;2.70;98.50
4635;DHT22;2330;48.158;11.816;2022-12-07T15:07:19;2.60;98.50
4635;DHT22;2330;48.158;11.816;2022-12-07T15:09:47;2.60;98.50
4635;DHT22;2330;48.158;11.816;2022-12-07T15:12:14;2.50;98.50
4635;DHT22;2330;48.158;11.816;2022-12-07T15:14:40;2.40;98.50
4635;DHT22;2330;48.158;11.816;2022-12-07T15:17:10;2.40;98.50
4635;DHT22;2330;48.158;11.816;2022-12-07T15:19:51;2.30;98.50
4635;DHT22;2330;48.158;11.816;2022-12-07T15:22:18;2.30;98.50
4635;DHT22;2330;48.158;11.816;2022-12-07T15:24:45;2.20;98.50
4635;DHT22;2330;48.158;11.816;2022-12-07T15:27:12;2.10;98.50
4635;DHT22;2330;48.158;11.816;2022-12-07T15:29:38;2.00;98.50
4635;DHT22;2330;48.158;11.816;2022-12-07T15:32:05;2.00;98.50
4635;DHT22;2330;48.158;11.816;2022-12-07T15:34:32;2.00;98.50
4635;DHT22;2330;48.158;11.816;2022-12-07T15:37:06;2.00;98.50
4635;DHT22;2330;48.158;11.816;2022-12-07T15:39:33;1.90;98.50
4635;DHT22;2330;48.158;11.816;2022-12-07T15:42:00;1.80;98.50
4635;DHT22;2330;48.158;11.816;2022-12-07T15:44:27;1.80;98.50
4635;DHT22;2330;48.158;11.816;2022-12-07T15:47:12;1.70;98.50
4635;DHT22;2330;48.158;11.816;2022-12-07T15:49:39;1.70;98.50
4635;DHT22;2330;48.158;11.816;2022-12-07T15:52:06;1.70;98.50
4635;DHT22;2330;48.158;11.816;2022-12-07T15:54:32;1.70;98.50
4635;DHT22;2330;48.158;11.816;2022-12-07T15:56:59;1.70;98.50
4635;DHT22;2330;48.158;11.816;2022-12-07T15:59:27;1.70;98.50
4635;DHT22;2330;48.158;11.816;2022-12-07T16:01:54;1.70;98.50
4635;DHT22;2330;48.158;11.816;2022-12-07T16:04:21;1.60;98.50
4635;DHT22;2330;48.158;11.816;2022-12-07T16:06:48;1.60;98.50
4635;DHT22;2330;48.158;11.816;2022-12-07T16:09:17;1.60;98.50
4635;DHT22;2330;48.158;11.816;2022-12-07T16:11:44;1.60;98.50
4635;DHT22;2330;48.158;11.816;2022-12-07T16:14:11;1.60;98.50
4635;DHT22;2330;48.158;11.816;2022-12-07T16:16:37;1.60;98.50
4635;DHT22;2330;48.158;11.816;2022-12-07T16:19:07;1.60;98.50
4635;DHT22;2330;48.158;11.816;2022-12-07T16:21:35;1.60;98.50
4635;DHT22;2330;48.158;11.816;2022-12-07T16:24:02;1.60;98.50
4635;DHT22;2330;48.158;11.816;2022-12-07T16:26:29;1.60;98.50
4635;DHT22;2330;48.158;11.816;2022-12-07T16:28:56;1.60;98.50
4635;DHT22;2330;48.158;11.816;2022-12-07T16:31:25;1.60;98.50
4635;DHT22;2330;48.158;11.816;2022-12-07T16:33:57;1.60;98.50
4635;DHT22;2330;48.158;11.816;2022-12-07T16:36:24;1.50;98.50
4635;DHT22;2330;48.158;11.816;2022-12-07T16:39:12;1.60;98.50
4635;DHT22;2330;48.158;11.816;2022-12-07T16:41:39;1.60;98.50
4635;DHT22;2330;48.158;11.816;2022-12-07T16:44:09;1.60;98.50
4635;DHT22;2330;48.158;11.816;2022-12-07T16:46:36;1.60;98.50
4635;DHT22;2330;48.158;11.816;2022-12-07T16:49:04;1.50;98.50
4635;DHT22;2330;48.158;11.816;2022-12-07T16:51:31;1.50;98.50
4635;DHT22;2330;48.158;11.816;2022-12-07T16:53:58;1.40;98.50
4635;DHT22;2330;48.158;11.816;2022-12-07T16:56:25;1.40;98.50
4635;DHT22;2330;48.158;11.816;2022-12-07T16:58:53;1.30;98.50
4635;DHT22;2330;48.158;11.816;2022-12-07T17:01:22;1.30;98.50
4635;DHT22;2330;48.158;11.816;2022-12-07T17:03:54;1.40;98.50
4635;DHT22;2330;48.158;11.816;2022-12-07T17:06:24;1.30;98.50
4635;DHT22;2330;48.158;11.816;2022-12-07T17:08:52;1.30;98.50
4635;DHT22;2330;48.158;11.816;2022-12-07T17:11:21;1.30;98.50
4635;DHT22;2330;48.158;11.816;2022-12-07T17:13:49;1.30;98.50
4635;DHT22;2330;48.158;11.816;2022-12-07T17:16:34;1.30;98.50
4635;DHT22;2330;48.158;11.816;2022-12-07T17:19:05;1.30;98.50
4635;DHT22;2330;48.158;11.816;2022-12-07T17:21:33;1.40;98.50
4635;DHT22;2330;48.158;11.816;2022-12-07T17:24:03;1.40;98.50
4635;DHT22;2330;48.158;11.816;2022-12-07T17:26:30;1.50;98.50
4635;DHT22;2330;48.158;11.816;2022-12-07T17:29:02;1.50;98.50
4635;DHT22;2330;48.158;11.816;2022-12-07T17:31:29;1.40;98.50
4635;DHT22;2330;48.158;11.816;2022-12-07T17:33:56;1.50;98.50
4635;DHT22;2330;48.158;11.816;2022-12-07T17:36:26;1.50;98.50
4635;DHT22;2330;48.158;11.816;2022-12-07T17:38:53;1.50;98.50
4635;DHT22;2330;48.158;11.816;2022-12-07T17:41:27;1.50;98.50
4635;DHT22;2330;48.158;11.816;2022-12-07T17:44:15;1.50;98.50
4635;DHT22;2330;48.158;11.816;2022-12-07T17:46:44;1.50;98.50
4635;DHT22;2330;48.158;11.816;2022-12-07T17:49:11;1.50;98.50
4635;DHT22;2330;48.158;11.816;2022-12-07T17:51:38;1.50;98.50
4635;DHT22;2330;48.158;11.816;2022-12-07T17:54:23;1.40;98.50
4635;DHT22;2330;48.158;11.816;2022-12-07T17:56:50;1.30;98.50
4635;DHT22;2330;48.158;11.816;2022-12-07T17:59:17;1.20;98.50
4635;DHT22;2330;48.158;11.816;2022-12-07T18:01:44;1.20;98.50
4635;DHT22;2330;48.158;11.816;2022-12-07T18:04:11;1.20;98.50
4635;DHT22;2330;48.158;11.816;2022-12-07T18:06:38;1.10;98.50
4635;DHT22;2330;48.158;11.816;2022-12-07T18:09:06;1.10;98.50
4635;DHT22;2330;48.158;11.816;2022-12-07T18:11:33;1.00;98.50
4635;DHT22;2330;48.158;11.816;2022-12-07T18:14:00;1.00;98.50
4635;DHT22;2330;48.158;11.816;2022-12-07T18:16:28;0.90;98.50
4635;DHT22;2330;48.158;11.816;2022-12-07T18:19:04;0.90;98.50
4635;DHT22;2330;48.158;11.816;2022-12-07T18:21:31;0.90;98.50
4635;DHT22;2330;48.158;11.816;2022-12-07T18:24:00;0.90;98.50
4635;DHT22;2330;48.158;11.816;2022-12-07T18:26:30;0.80;98.50
4635;DHT22;2330;48.158;11.816;2022-12-07T18:28:58;0.80;98.50
4635;DHT22;2330;48.158;11.816;2022-12-07T18:31:26;0.80;98.50
4635;DHT22;2330;48.158;11.816;2022-12-07T18:33:53;0.90;98.50
4635;DHT22;2330;48.158;11.816;2022-12-07T18:36:23;0.90;98.50
4635;DHT22;2330;48.158;11.816;2022-12-07T18:38:50;0.90;98.50
4635;DHT22;2330;48.158;11.816;2022-12-07T18:41:17;0.90;98.50
4635;DHT22;2330;48.158;11.816;2022-12-07T18:43:45;0.90;98.50
4635;DHT22;2330;48.158;11.816;2022-12-07T18:46:15;0.90;98.50
4635;DHT22;2330;48.158;11.816;2022-12-07T18:48:44;0.90;98.50
4635;DHT22;2330;48.158;11.816;2022-12-07T18:51:12;0.80;98.50
4635;DHT22;2330;48.158;11.816;2022-12-07T18:53:39;0.80;98.50
4635;DHT22;2330;48.158;11.816;2022-12-07T18:56:15;0.80;98.50
4635;DHT22;2330;48.158;11.816;2022-12-07T18:58:43;0.90;98.50
4635;DHT22;2330;48.158;11.816;2022-12-07T19:01:32;0.90;98.50
4635;DHT22;2330;48.158;11.816;2022-12-07T19:04:00;1.00;98.50
4635;DHT22;2330;48.158;11.816;2022-12-07T19:06:27;1.10;98.50
4635;DHT22;2330;48.158;11.816;2022-12-07T19:08:54;1.10;98.50
4635;DHT22;2330;48.158;11.816;2022-12-07T19:11:24;1.10;98.50
4635;DHT22;2330;48.158;11.816;2022-12-07T19:14:10;1.20;98.50
4635;DHT22;2330;48.158;11.816;2022-12-07T19:16:37;1.20;98.50
4635;DHT22;2330;48.158;11.816;2022-12-07T19:19:04;1.20;98.50
4635;DHT22;2330;48.158;11.816;2022-12-07T19:21:31;1.30;98.50
4635;DHT22;2330;48.158;11.816;2022-12-07T19:23:58;1.30;98.50
4635;DHT22;2330;48.158;11.816;2022-12-07T19:28:36;1.30;98.50
4635;DHT22;2330;48.158;11.816;2022-12-07T19:31:07;1.30;98.50
4635;DHT22;2330;48.158;11.816;2022-12-07T19:33:34;1.30;98.50
4635;DHT22;2330;48.158;11.816;2022-12-07T19:36:00;1.40;98.50
4635;DHT22;2330;48.158;11.816;2022-12-07T19:38:29;1.40;98.50
4635;DHT22;2330;48.158;11.816;2022-12-07T19:41:09;1.40;98.50
4635;DHT22;2330;48.158;11.816;2022-12-07T19:43:55;1.40;98.50
4635;DHT22;2330;48.158;11.816;2022-12-07T19:46:22;1.40;98.50
4635;DHT22;2330;48.158;11.816;2022-12-07T19:48:49;1.40;98.50
4635;DHT22;2330;48.158;11.816;2022-12-07T19:51:15;1.30;98.50
4635;DHT22;2330;48.158;11.816;2022-12-07T19:53:42;1.30;98.50
4635;DHT22;2330;48.158;11.816;2022-12-07T19:56:17;1.20;98.50
4635;DHT22;2330;48.158;11.816;2022-12-07T19:58:44;1.20;98.50
4635;DHT22;2330;48.158;11.816;2022-12-07T20:01:11;1.30;98.50
4635;DHT22;2330;48.158;11.816;2022-12-07T20:03:39;1.30;98.50
4635;DHT22;2330;48.158;11.816;2022-12-07T20:06:14;1.30;98.50
4635;DHT22;2330;48.158;11.816;2022-12-07T20:08:42;1.20;98.50
4635;DHT22;2330;48.158;11.816;2022-12-07T20:11:10;1.10;98.50
4635;DHT22;2330;48.158;11.816;2022-12-07T20:13:55;1.10;98.50
4635;DHT22;2330;48.158;11.816;2022-12-07T20:16:22;1.10;98.50
4635;DHT22;2330;48.158;11.816;2022-12-07T20:18:50;1.10;98.50
4635;DHT22;2330;48.158;11.816;2022-12-07T20:21:23;1.10;98.50
4635;DHT22;2330;48.158;11.816;2022-12-07T20:23:50;1.20;98.50
4635;DHT22;2330;48.158;11.816;2022-12-07T20:26:18;1.10;98.50
4635;DHT22;2330;48.158;11.816;2022-12-07T20:28:45;1.10;98.50
4635;DHT22;2330;48.158;11.816;2022-12-07T20:31:13;1.10;98.50
4635;DHT22;2330;48.158;11.816;2022-12-07T20:33:41;1.10;98.50
4635;DHT22;2330;48.158;11.816;2022-12-07T20:36:13;1.10;98.50
4635;DHT22;2330;48.158;11.816;2022-12-07T20:38:41;1.10;98.50
4635;DHT22;2330;48.158;11.816;2022-12-07T20:41:11;1.10;98.50
4635;DHT22;2330;48.158;11.816;2022-12-07T20:43:56;1.10;98.50
4635;DHT22;2330;48.158;11.816;2022-12-07T20:46:23;1.10;98.50
4635;DHT22;2330;48.158;11.816;2022-12-07T20:48:50;1.10;98.50
4635;DHT22;2330;48.158;11.816;2022-12-07T20:51:17;1.00;98.50
4635;DHT22;2330;48.158;11.816;2022-12-07T20:53:44;1.00;98.50
4635;DHT22;2330;48.158;11.816;2022-12-07T20:56:24;0.90;98.50
4635;DHT22;2330;48.158;11.816;2022-12-07T20:58:54;0.90;98.50
4635;DHT22;2330;48.158;11.816;2022-12-07T21:01:21;0.90;98.50
4635;DHT22;2330;48.158;11.816;2022-12-07T21:03:48;0.90;98.50
4635;DHT22;2330;48.158;11.816;2022-12-07T21:06:16;0.90;98.50
4635;DHT22;2330;48.158;11.816;2022-12-07T21:08:45;0.90;98.50
4635;DHT22;2330;48.158;11.816;2022-12-07T21:11:12;0.90;98.50
4635;DHT22;2330;48.158;11.816;2022-12-07T21:13:40;0.90;98.50
4635;DHT22;2330;48.158;11.816;2022-12-07T21:16:12;0.90;98.50
4635;DHT22;2330;48.158;11.816;2022-12-07T21:18:40;0.80;98.50
4635;DHT22;2330;48.158;11.816;2022-12-07T21:21:08;0.80;98.50
4635;DHT22;2330;48.158;11.816;2022-12-07T21:23:38;0.90;98.50
4635;DHT22;2330;48.158;11.816;2022-12-07T21:26:14;0.90;98.50
4635;DHT22;2330;48.158;11.816;2022-12-07T21:28:41;0.90;98.50
4635;DHT22;2330;48.158;11.816;2022-12-07T21:31:09;0.80;98.50